sensor_id;sensor_type;location;lat;lon;timestamp;noise_LAeq;noise_LA_min;noise_LA_max;noise_LA01;noise_LA95
61286;Laerm;56412;53.148;8.204;2022-08-14T00:00:40;41.23;37.05;45.67;;
61286;Laerm;56412;53.148;8.204;2022-08-14T00:03:05;42.96;38.12;56.25;;
61286;Laerm;56412;53.148;8.204;2022-08-14T00:05:30;40.60;36.80;43.29;;
61286;Laerm;56412;53.148;8.204;2022-08-14T00:07:56;41.45;37.29;54.58;;
61286;Laerm;56412;53.148;8.204;2022-08-14T00:10:22;41.28;35.64;45.33;;
61286;Laerm;56412;53.148;8.204;2022-08-14T00:12:52;41.63;38.12;46.75;;
61286;Laerm;56412;53.148;8.204;2022-08-14T00:15:31;41.54;35.96;44.95;;
61286;Laerm;56412;53.148;8.204;2022-08-14T00:17:57;40.56;31.49;45.33;;
61286;Laerm;56412;53.148;8.204;2022-08-14T00:20:28;40.04;36.26;51.85;;
61286;Laerm;56412;53.148;8.204;2022-08-14T00:22:53;40.12;33.18;44.28;;
61286;Laerm;56412;53.148;8.204;2022-08-14T00:25:19;40.30;37.29;44.18;;
61286;Laerm;56412;53.148;8.204;2022-08-14T00:27:44;40.07;35.91;44.32;;
61286;Laerm;56412;53.148;8.204;2022-08-14T00:30:12;40.07;35.64;45.54;;
61286;Laerm;56412;53.148;8.204;2022-08-14T00:32:38;39.70;32.95;43.01;;
61286;Laerm;56412;53.148;8.204;2022-08-14T00:35:05;40.01;34.91;44.04;;
61286;Laerm;56412;53.148;8.204;2022-08-14T00:37:31;40.18;35.29;42.56;;
61286;Laerm;56412;53.148;8.204;2022-08-14T00:39:57;39.94;33.53;42.76;;
61286;Laerm;56412;53.148;8.204;2022-08-14T00:42:22;40.21;35.64;44.28;;
61286;Laerm;56412;53.148;8.204;2022-08-14T00:44:48;40.18;33.53;43.42;;
61286;Laerm;56412;53.148;8.204;2022-08-14T00:47:15;40.63;35.29;46.46;;
61286;Laerm;56412;53.148;8.204;2022-08-14T00:49:41;41.32;36.54;61.00;;
61286;Laerm;56412;53.148;8.204;2022-08-14T00:52:07;40.13;36.54;46.32;;
61286;Laerm;56412;53.148;8.204;2022-08-14T00:54:33;40.74;37.51;43.25;;
61286;Laerm;56412;53.148;8.204;2022-08-14T00:56:59;40.87;37.92;48.36;;
61286;Laerm;56412;53.148;8.204;2022-08-14T00:59:27;42.15;37.72;46.08;;
61286;Laerm;56412;53.148;8.204;2022-08-14T01:01:55;40.74;37.29;44.37;;
61286;Laerm;56412;53.148;8.204;2022-08-14T01:04:22;40.47;35.96;46.20;;
61286;Laerm;56412;53.148;8.204;2022-08-14T01:06:49;40.29;36.26;46.57;;
61286;Laerm;56412;53.148;8.204;2022-08-14T01:09:20;40.44;36.80;44.67;;
61286;Laerm;56412;53.148;8.204;2022-08-14T01:11:52;40.49;37.05;45.97;;
61286;Laerm;56412;53.148;8.204;2022-08-14T01:14:19;40.36;36.80;42.63;;
61286;Laerm;56412;53.148;8.204;2022-08-14T01:16:45;40.51;37.29;43.25;;
61286;Laerm;56412;53.148;8.204;2022-08-14T01:19:12;40.52;37.51;43.01;;
61286;Laerm;56412;53.148;8.204;2022-08-14T01:21:56;40.57;36.26;44.91;;
61286;Laerm;56412;53.148;8.204;2022-08-14T01:24:21;40.44;36.54;43.19;;
61286;Laerm;56412;53.148;8.204;2022-08-14T01:26:47;40.39;37.05;43.25;;
61286;Laerm;56412;53.148;8.204;2022-08-14T01:29:12;40.34;37.29;43.19;;
61286;Laerm;56412;53.148;8.204;2022-08-14T01:31:39;40.32;35.96;42.82;;
61286;Laerm;56412;53.148;8.204;2022-08-14T01:34:14;40.44;36.54;44.83;;
61286;Laerm;56412;53.148;8.204;2022-08-14T01:36:39;40.09;36.54;43.42;;
61286;Laerm;56412;53.148;8.204;2022-08-14T01:39:09;40.04;36.54;46.83;;
61286;Laerm;56412;53.148;8.204;2022-08-14T01:41:35;40.01;36.26;44.71;;
61286;Laerm;56412;53.148;8.204;2022-08-14T01:44:05;40.11;33.53;43.01;;
61286;Laerm;56412;53.148;8.204;2022-08-14T01:46:33;40.29;34.91;43.36;;
61286;Laerm;56412;53.148;8.204;2022-08-14T01:49:00;44.91;37.05;67.82;;
61286;Laerm;56412;53.148;8.204;2022-08-14T01:51:27;40.06;36.26;46.23;;
61286;Laerm;56412;53.148;8.204;2022-08-14T01:54:00;39.88;35.29;51.31;;
61286;Laerm;56412;53.148;8.204;2022-08-14T01:56:31;40.17;34.94;60.05;;
61286;Laerm;56412;53.148;8.204;2022-08-14T01:59:23;39.80;35.96;42.82;;
61286;Laerm;56412;53.148;8.204;2022-08-14T02:01:51;40.22;35.64;44.83;;
61286;Laerm;56412;53.148;8.204;2022-08-14T02:04:22;40.31;34.04;44.94;;
61286;Laerm;56412;53.148;8.204;2022-08-14T02:06:49;40.14;35.96;45.18;;
61286;Laerm;56412;53.148;8.204;2022-08-14T02:09:15;40.71;34.91;47.57;;
61286;Laerm;56412;53.148;8.204;2022-08-14T02:11:41;40.26;36.80;42.82;;
61286;Laerm;56412;53.148;8.204;2022-08-14T02:14:09;40.25;36.26;43.64;;
61286;Laerm;56412;53.148;8.204;2022-08-14T02:16:37;39.95;35.96;50.41;;
61286;Laerm;56412;53.148;8.204;2022-08-14T02:19:24;40.02;36.54;43.94;;
61286;Laerm;56412;53.148;8.204;2022-08-14T02:21:53;39.90;36.26;42.35;;
61286;Laerm;56412;53.148;8.204;2022-08-14T02:24:21;40.10;35.61;47.82;;
61286;Laerm;56412;53.148;8.204;2022-08-14T02:26:48;40.10;36.46;43.58;;
61286;Laerm;56412;53.148;8.204;2022-08-14T02:29:16;40.08;37.29;43.94;;
61286;Laerm;56412;53.148;8.204;2022-08-14T02:31:45;40.03;36.26;46.90;;
61286;Laerm;56412;53.148;8.204;2022-08-14T02:34:13;40.07;36.54;42.69;;
61286;Laerm;56412;53.148;8.204;2022-08-14T02:36:40;40.16;36.54;50.38;;
61286;Laerm;56412;53.148;8.204;2022-08-14T02:39:09;40.20;35.29;48.36;;
61286;Laerm;56412;53.148;8.204;2022-08-14T02:41:35;40.26;36.26;48.27;;
61286;Laerm;56412;53.148;8.204;2022-08-14T02:44:02;40.25;35.96;44.23;;
61286;Laerm;56412;53.148;8.204;2022-08-14T02:46:28;40.20;37.05;48.70;;
61286;Laerm;56412;53.148;8.204;2022-08-14T02:48:55;40.08;35.96;44.28;;
61286;Laerm;56412;53.148;8.204;2022-08-14T02:51:20;40.25;36.26;51.76;;
61286;Laerm;56412;53.148;8.204;2022-08-14T02:53:46;40.19;35.96;49.41;;
61286;Laerm;56412;53.148;8.204;2022-08-14T02:56:14;39.91;36.26;46.83;;
61286;Laerm;56412;53.148;8.204;2022-08-14T02:58:43;40.30;37.05;43.79;;
61286;Laerm;56412;53.148;8.204;2022-08-14T03:01:11;40.07;35.29;42.76;;
61286;Laerm;56412;53.148;8.204;2022-08-14T03:03:36;40.20;36.54;44.79;;
61286;Laerm;56412;53.148;8.204;2022-08-14T03:06:06;40.05;36.26;49.45;;
61286;Laerm;56412;53.148;8.204;2022-08-14T03:08:32;40.28;35.96;50.94;;
61286;Laerm;56412;53.148;8.204;2022-08-14T03:11:03;40.14;35.64;49.45;;
61286;Laerm;56412;53.148;8.204;2022-08-14T03:13:35;40.30;36.54;43.58;;
61286;Laerm;56412;53.148;8.204;2022-08-14T03:16:03;40.02;35.64;55.85;;
61286;Laerm;56412;53.148;8.204;2022-08-14T03:18:29;40.08;34.04;45.80;;
61286;Laerm;56412;53.148;8.204;2022-08-14T03:20:58;40.34;35.96;47.31;;
61286;Laerm;56412;53.148;8.204;2022-08-14T03:23:24;40.53;36.26;47.94;;
61286;Laerm;56412;53.148;8.204;2022-08-14T03:25:49;40.27;36.54;47.31;;
61286;Laerm;56412;53.148;8.204;2022-08-14T03:28:14;40.51;36.54;46.59;;
61286;Laerm;56412;53.148;8.204;2022-08-14T03:30:40;40.46;36.80;46.75;;
61286;Laerm;56412;53.148;8.204;2022-08-14T03:33:10;40.41;36.54;44.87;;
61286;Laerm;56412;53.148;8.204;2022-08-14T03:35:37;40.74;37.05;47.42;;
61286;Laerm;56412;53.148;8.204;2022-08-14T03:38:05;40.82;36.80;46.73;;
61286;Laerm;56412;53.148;8.204;2022-08-14T03:40:33;41.23;37.72;57.23;;
61286;Laerm;56412;53.148;8.204;2022-08-14T03:42:58;40.45;36.80;48.60;;
61286;Laerm;56412;53.148;8.204;2022-08-14T03:45:23;40.64;37.05;44.28;;
61286;Laerm;56412;53.148;8.204;2022-08-14T03:47:49;40.67;36.54;51.40;;
61286;Laerm;56412;53.148;8.204;2022-08-14T03:50:14;40.66;37.51;49.34;;
61286;Laerm;56412;53.148;8.204;2022-08-14T03:52:40;40.61;36.54;49.63;;
61286;Laerm;56412;53.148;8.204;2022-08-14T03:55:09;40.93;37.51;54.00;;
61286;Laerm;56412;53.148;8.204;2022-08-14T03:57:37;41.06;37.51;57.04;;
61286;Laerm;56412;53.148;8.204;2022-08-14T04:00:07;40.73;36.80;46.54;;
61286;Laerm;56412;53.148;8.204;2022-08-14T04:02:35;41.50;36.80;56.10;;
61286;Laerm;56412;53.148;8.204;2022-08-14T04:05:00;44.34;41.66;54.72;;
61286;Laerm;56412;53.148;8.204;2022-08-14T04:07:26;43.58;37.72;56.34;;
61286;Laerm;56412;53.148;8.204;2022-08-14T04:09:52;48.84;36.54;74.26;;
61286;Laerm;56412;53.148;8.204;2022-08-14T04:12:17;45.00;37.92;74.13;;
61286;Laerm;56412;53.148;8.204;2022-08-14T04:14:44;40.88;36.80;48.94;;
61286;Laerm;56412;53.148;8.204;2022-08-14T04:17:09;41.25;36.26;66.03;;
61286;Laerm;56412;53.148;8.204;2022-08-14T04:19:35;40.90;37.29;61.78;;
61286;Laerm;56412;53.148;8.204;2022-08-14T04:22:01;41.19;37.51;49.54;;
61286;Laerm;56412;53.148;8.204;2022-08-14T04:24:27;48.79;37.51;63.13;;
61286;Laerm;56412;53.148;8.204;2022-08-14T04:26:53;66.16;39.41;78.59;;
61286;Laerm;56412;53.148;8.204;2022-08-14T04:29:19;42.02;37.72;46.80;;
61286;Laerm;56412;53.148;8.204;2022-08-14T04:31:45;41.15;36.26;50.09;;
61286;Laerm;56412;53.148;8.204;2022-08-14T04:34:11;41.32;37.29;55.99;;
61286;Laerm;56412;53.148;8.204;2022-08-14T04:36:37;43.05;37.92;55.03;;
61286;Laerm;56412;53.148;8.204;2022-08-14T04:39:22;43.02;37.72;68.84;;
61286;Laerm;56412;53.148;8.204;2022-08-14T04:42:06;42.60;36.80;63.33;;
61286;Laerm;56412;53.148;8.204;2022-08-14T04:44:50;42.02;36.54;60.59;;
61286;Laerm;56412;53.148;8.204;2022-08-14T04:47:16;41.94;37.72;53.44;;
61286;Laerm;56412;53.148;8.204;2022-08-14T04:50:01;42.24;37.29;57.23;;
61286;Laerm;56412;53.148;8.204;2022-08-14T04:52:27;40.69;37.29;46.67;;
61286;Laerm;56412;53.148;8.204;2022-08-14T04:54:53;42.46;37.05;59.73;;
61286;Laerm;56412;53.148;8.204;2022-08-14T04:57:18;42.78;38.30;59.60;;
61286;Laerm;56412;53.148;8.204;2022-08-14T04:59:44;40.75;37.05;48.17;;
61286;Laerm;56412;53.148;8.204;2022-08-14T05:02:09;40.83;37.05;46.02;;
61286;Laerm;56412;53.148;8.204;2022-08-14T05:04:34;45.25;37.29;65.94;;
61286;Laerm;56412;53.148;8.204;2022-08-14T05:07:00;40.75;36.80;49.29;;
61286;Laerm;56412;53.148;8.204;2022-08-14T05:09:25;40.88;37.51;53.24;;
61286;Laerm;56412;53.148;8.204;2022-08-14T05:11:51;40.99;37.29;55.66;;
61286;Laerm;56412;53.148;8.204;2022-08-14T05:14:18;41.57;37.92;55.70;;
61286;Laerm;56412;53.148;8.204;2022-08-14T05:16:46;41.58;37.77;50.86;;
61286;Laerm;56412;53.148;8.204;2022-08-14T05:19:12;41.37;37.29;52.64;;
61286;Laerm;56412;53.148;8.204;2022-08-14T05:21:38;59.36;37.51;77.14;;
61286;Laerm;56412;53.148;8.204;2022-08-14T05:24:04;41.18;37.51;45.33;;
61286;Laerm;56412;53.148;8.204;2022-08-14T05:26:29;41.12;36.54;58.02;;
61286;Laerm;56412;53.148;8.204;2022-08-14T05:28:55;41.65;36.80;59.08;;
61286;Laerm;56412;53.148;8.204;2022-08-14T05:31:20;40.92;37.51;56.03;;
61286;Laerm;56412;53.148;8.204;2022-08-14T05:33:45;40.61;36.26;50.31;;
61286;Laerm;56412;53.148;8.204;2022-08-14T05:36:12;49.96;36.80;73.47;;
61286;Laerm;56412;53.148;8.204;2022-08-14T05:38:43;43.12;37.51;65.82;;
61286;Laerm;56412;53.148;8.204;2022-08-14T05:41:11;54.88;38.30;70.71;;
61286;Laerm;56412;53.148;8.204;2022-08-14T05:43:37;41.41;36.54;55.52;;
61286;Laerm;56412;53.148;8.204;2022-08-14T05:46:03;43.54;35.96;63.52;;
61286;Laerm;56412;53.148;8.204;2022-08-14T05:48:29;41.99;37.29;61.87;;
61286;Laerm;56412;53.148;8.204;2022-08-14T05:50:55;41.40;36.80;61.95;;
61286;Laerm;56412;53.148;8.204;2022-08-14T05:53:23;40.62;37.05;46.65;;
61286;Laerm;56412;53.148;8.204;2022-08-14T05:55:49;40.78;36.80;43.13;;
61286;Laerm;56412;53.148;8.204;2022-08-14T05:58:15;41.07;37.29;52.21;;
61286;Laerm;56412;53.148;8.204;2022-08-14T06:00:43;42.74;37.92;51.67;;
61286;Laerm;56412;53.148;8.204;2022-08-14T06:03:12;42.80;38.81;49.95;;
61286;Laerm;56412;53.148;8.204;2022-08-14T06:05:39;40.76;37.05;44.18;;
61286;Laerm;56412;53.148;8.204;2022-08-14T06:08:12;40.67;36.26;46.95;;
61286;Laerm;56412;53.148;8.204;2022-08-14T06:10:39;41.45;34.91;52.96;;
61286;Laerm;56412;53.148;8.204;2022-08-14T06:13:04;41.52;37.05;46.49;;
61286;Laerm;56412;53.148;8.204;2022-08-14T06:15:29;41.35;36.54;62.12;;
61286;Laerm;56412;53.148;8.204;2022-08-14T06:17:54;41.66;37.92;49.31;;
61286;Laerm;56412;53.148;8.204;2022-08-14T06:20:20;40.93;37.05;47.22;;
61286;Laerm;56412;53.148;8.204;2022-08-14T06:22:47;58.35;38.48;74.65;;
61286;Laerm;56412;53.148;8.204;2022-08-14T06:25:13;41.43;38.48;48.00;;
61286;Laerm;56412;53.148;8.204;2022-08-14T06:27:41;42.55;36.54;55.00;;
61286;Laerm;56412;53.148;8.204;2022-08-14T06:30:09;41.07;37.51;53.31;;
61286;Laerm;56412;53.148;8.204;2022-08-14T06:32:35;41.07;37.51;51.61;;
61286;Laerm;56412;53.148;8.204;2022-08-14T06:35:03;40.97;36.54;62.85;;
61286;Laerm;56412;53.148;8.204;2022-08-14T06:37:38;40.92;37.05;56.32;;
61286;Laerm;56412;53.148;8.204;2022-08-14T06:40:04;41.77;37.72;55.21;;
61286;Laerm;56412;53.148;8.204;2022-08-14T06:42:29;42.32;37.92;54.59;;
61286;Laerm;56412;53.148;8.204;2022-08-14T06:44:54;41.58;37.29;53.16;;
61286;Laerm;56412;53.148;8.204;2022-08-14T06:47:21;42.37;37.05;55.30;;
61286;Laerm;56412;53.148;8.204;2022-08-14T06:49:47;57.08;37.51;71.76;;
61286;Laerm;56412;53.148;8.204;2022-08-14T06:52:12;41.01;37.29;47.68;;
61286;Laerm;56412;53.148;8.204;2022-08-14T06:54:39;41.28;37.51;61.90;;
61286;Laerm;56412;53.148;8.204;2022-08-14T06:57:04;42.54;36.26;57.90;;
61286;Laerm;56412;53.148;8.204;2022-08-14T06:59:30;40.42;36.46;57.03;;
61286;Laerm;56412;53.148;8.204;2022-08-14T07:01:55;41.11;37.29;60.88;;
61286;Laerm;56412;53.148;8.204;2022-08-14T07:04:39;40.75;35.29;55.65;;
61286;Laerm;56412;53.148;8.204;2022-08-14T07:07:23;42.32;38.30;59.02;;
61286;Laerm;56412;53.148;8.204;2022-08-14T07:09:48;42.57;37.51;55.54;;
61286;Laerm;56412;53.148;8.204;2022-08-14T07:12:13;40.46;37.05;44.83;;
61286;Laerm;56412;53.148;8.204;2022-08-14T07:14:39;41.61;37.29;64.68;;
61286;Laerm;56412;53.148;8.204;2022-08-14T07:17:05;43.68;37.05;60.81;;
61286;Laerm;56412;53.148;8.204;2022-08-14T07:19:30;42.92;37.51;59.53;;
61286;Laerm;56412;53.148;8.204;2022-08-14T07:21:55;41.77;37.92;51.57;;
61286;Laerm;56412;53.148;8.204;2022-08-14T07:24:21;40.97;35.96;58.36;;
61286;Laerm;56412;53.148;8.204;2022-08-14T07:26:46;56.24;37.05;71.35;;
61286;Laerm;56412;53.148;8.204;2022-08-14T07:29:11;47.14;37.29;61.93;;
61286;Laerm;56412;53.148;8.204;2022-08-14T07:31:36;41.64;35.96;56.33;;
61286;Laerm;56412;53.148;8.204;2022-08-14T07:34:02;41.11;36.54;56.46;;
61286;Laerm;56412;53.148;8.204;2022-08-14T07:36:27;44.91;36.26;62.95;;
61286;Laerm;56412;53.148;8.204;2022-08-14T07:38:52;55.89;37.29;71.63;;
61286;Laerm;56412;53.148;8.204;2022-08-14T07:41:18;44.89;37.72;64.11;;
61286;Laerm;56412;53.148;8.204;2022-08-14T07:43:43;42.81;38.30;62.16;;
61286;Laerm;56412;53.148;8.204;2022-08-14T07:46:09;43.74;36.54;60.90;;
61286;Laerm;56412;53.148;8.204;2022-08-14T07:48:38;42.62;35.96;54.34;;
61286;Laerm;56412;53.148;8.204;2022-08-14T07:51:05;43.43;38.78;55.37;;
61286;Laerm;56412;53.148;8.204;2022-08-14T07:53:30;40.88;35.64;54.46;;
61286;Laerm;56412;53.148;8.204;2022-08-14T07:55:56;41.92;37.05;53.63;;
61286;Laerm;56412;53.148;8.204;2022-08-14T07:58:21;42.80;38.48;56.29;;
61286;Laerm;56412;53.148;8.204;2022-08-14T08:00:47;45.69;37.92;65.61;;
61286;Laerm;56412;53.148;8.204;2022-08-14T08:03:15;48.67;37.05;64.94;;
61286;Laerm;56412;53.148;8.204;2022-08-14T08:05:41;46.70;35.29;63.07;;
61286;Laerm;56412;53.148;8.204;2022-08-14T08:08:07;41.57;36.26;56.05;;
61286;Laerm;56412;53.148;8.204;2022-08-14T08:10:33;49.34;37.51;68.82;;
61286;Laerm;56412;53.148;8.204;2022-08-14T08:15:33;46.43;38.81;61.33;;
61286;Laerm;56412;53.148;8.204;2022-08-14T08:18:00;51.60;39.12;66.40;;
61286;Laerm;56412;53.148;8.204;2022-08-14T08:20:30;50.00;40.06;67.54;;
61286;Laerm;56412;53.148;8.204;2022-08-14T08:22:57;57.89;38.48;72.74;;
61286;Laerm;56412;53.148;8.204;2022-08-14T08:25:28;43.08;36.26;60.97;;
61286;Laerm;56412;53.148;8.204;2022-08-14T08:28:05;47.16;37.29;63.23;;
61286;Laerm;56412;53.148;8.204;2022-08-14T08:30:33;47.20;38.30;64.54;;
61286;Laerm;56412;53.148;8.204;2022-08-14T08:33:00;48.51;40.06;65.28;;
61286;Laerm;56412;53.148;8.204;2022-08-14T08:35:28;51.74;40.73;66.58;;
61286;Laerm;56412;53.148;8.204;2022-08-14T08:38:00;41.82;37.51;58.22;;
61286;Laerm;56412;53.148;8.204;2022-08-14T08:40:30;43.98;37.05;59.93;;
61286;Laerm;56412;53.148;8.204;2022-08-14T08:42:59;46.69;37.72;63.49;;
61286;Laerm;56412;53.148;8.204;2022-08-14T08:45:25;56.00;38.65;75.11;;
61286;Laerm;56412;53.148;8.204;2022-08-14T08:47:50;43.15;37.51;58.89;;
61286;Laerm;56412;53.148;8.204;2022-08-14T08:50:17;47.89;37.05;64.87;;
61286;Laerm;56412;53.148;8.204;2022-08-14T08:52:48;51.76;38.48;66.83;;
61286;Laerm;56412;53.148;8.204;2022-08-14T08:55:15;57.36;38.12;74.24;;
61286;Laerm;56412;53.148;8.204;2022-08-14T08:57:40;44.45;38.48;59.11;;
61286;Laerm;56412;53.148;8.204;2022-08-14T09:00:16;47.20;36.80;63.46;;
61286;Laerm;56412;53.148;8.204;2022-08-14T09:03:04;43.52;37.05;60.91;;
61286;Laerm;56412;53.148;8.204;2022-08-14T09:05:30;46.29;35.64;65.54;;
61286;Laerm;56412;53.148;8.204;2022-08-14T09:08:09;41.32;36.70;55.67;;
61286;Laerm;56412;53.148;8.204;2022-08-14T09:10:35;47.47;37.16;65.44;;
61286;Laerm;56412;53.148;8.204;2022-08-14T09:13:01;43.87;37.29;60.93;;
61286;Laerm;56412;53.148;8.204;2022-08-14T09:15:27;54.10;37.37;71.15;;
61286;Laerm;56412;53.148;8.204;2022-08-14T09:17:53;46.79;39.12;63.88;;
61286;Laerm;56412;53.148;8.204;2022-08-14T09:20:18;43.60;39.07;53.63;;
61286;Laerm;56412;53.148;8.204;2022-08-14T09:22:44;56.58;40.52;70.93;;
61286;Laerm;56412;53.148;8.204;2022-08-14T09:25:10;51.53;39.68;71.91;;
61286;Laerm;56412;53.148;8.204;2022-08-14T09:27:36;44.23;38.30;63.27;;
61286;Laerm;56412;53.148;8.204;2022-08-14T09:30:06;50.65;39.94;67.49;;
61286;Laerm;56412;53.148;8.204;2022-08-14T09:32:49;48.97;37.72;64.37;;
61286;Laerm;56412;53.148;8.204;2022-08-14T09:35:26;46.86;37.05;60.75;;
61286;Laerm;56412;53.148;8.204;2022-08-14T09:38:10;46.32;38.48;69.51;;
61286;Laerm;56412;53.148;8.204;2022-08-14T09:43:32;43.52;38.12;61.11;;
61286;Laerm;56412;53.148;8.204;2022-08-14T09:46:07;45.55;37.29;63.34;;
61286;Laerm;56412;53.148;8.204;2022-08-14T09:48:33;42.12;37.92;59.14;;
61286;Laerm;56412;53.148;8.204;2022-08-14T09:50:59;47.40;39.55;61.77;;
61286;Laerm;56412;53.148;8.204;2022-08-14T09:56:03;47.23;38.48;66.23;;
61286;Laerm;56412;53.148;8.204;2022-08-14T09:58:56;45.47;37.51;63.51;;
61286;Laerm;56412;53.148;8.204;2022-08-14T10:01:22;44.30;38.48;57.19;;
61286;Laerm;56412;53.148;8.204;2022-08-14T10:03:54;43.64;38.30;58.72;;
61286;Laerm;56412;53.148;8.204;2022-08-14T10:06:23;42.92;37.29;61.23;;
61286;Laerm;56412;53.148;8.204;2022-08-14T10:11:26;43.34;37.29;59.21;;
61286;Laerm;56412;53.148;8.204;2022-08-14T10:13:56;51.42;37.51;66.61;;
61286;Laerm;56412;53.148;8.204;2022-08-14T10:16:27;50.15;37.51;64.17;;
61286;Laerm;56412;53.148;8.204;2022-08-14T10:19:01;46.56;37.95;65.70;;
61286;Laerm;56412;53.148;8.204;2022-08-14T10:21:27;49.10;39.94;65.19;;
61286;Laerm;56412;53.148;8.204;2022-08-14T10:23:52;50.51;37.29;71.74;;
61286;Laerm;56412;53.148;8.204;2022-08-14T10:26:18;56.08;37.92;71.42;;
61286;Laerm;56412;53.148;8.204;2022-08-14T10:28:51;41.79;37.05;56.82;;
61286;Laerm;56412;53.148;8.204;2022-08-14T10:31:25;45.64;37.51;60.18;;
61286;Laerm;56412;53.148;8.204;2022-08-14T10:36:32;49.07;37.29;67.81;;
61286;Laerm;56412;53.148;8.204;2022-08-14T10:39:26;43.47;38.12;58.33;;
61286;Laerm;56412;53.148;8.204;2022-08-14T10:42:11;42.05;36.54;56.85;;
61286;Laerm;56412;53.148;8.204;2022-08-14T10:44:39;58.14;37.29;74.56;;
61286;Laerm;56412;53.148;8.204;2022-08-14T10:47:07;49.55;38.65;63.65;;
61286;Laerm;56412;53.148;8.204;2022-08-14T10:49:35;49.43;36.80;64.60;;
61286;Laerm;56412;53.148;8.204;2022-08-14T10:52:09;42.20;36.54;58.24;;
61286;Laerm;56412;53.148;8.204;2022-08-14T10:54:40;42.81;37.92;58.75;;
61286;Laerm;56412;53.148;8.204;2022-08-14T10:57:18;43.67;37.05;56.06;;
61286;Laerm;56412;53.148;8.204;2022-08-14T10:59:51;43.23;37.92;59.18;;
61286;Laerm;56412;53.148;8.204;2022-08-14T11:02:24;50.29;38.97;66.01;;
61286;Laerm;56412;53.148;8.204;2022-08-14T11:05:00;46.17;37.72;65.02;;
61286;Laerm;56412;53.148;8.204;2022-08-14T11:07:27;40.64;37.05;49.21;;
61286;Laerm;56412;53.148;8.204;2022-08-14T11:10:00;43.30;35.96;58.70;;
61286;Laerm;56412;53.148;8.204;2022-08-14T11:12:42;52.80;36.80;72.02;;
61286;Laerm;56412;53.148;8.204;2022-08-14T11:15:17;49.44;39.55;65.61;;
61286;Laerm;56412;53.148;8.204;2022-08-14T11:17:43;51.54;37.51;69.46;;
61286;Laerm;56412;53.148;8.204;2022-08-14T11:20:13;47.28;38.65;61.84;;
61286;Laerm;56412;53.148;8.204;2022-08-14T11:22:41;60.48;38.12;78.60;;
61286;Laerm;56412;53.148;8.204;2022-08-14T11:25:13;50.83;38.65;67.04;;
61286;Laerm;56412;53.148;8.204;2022-08-14T11:27:41;44.92;37.29;61.35;;
61286;Laerm;56412;53.148;8.204;2022-08-14T11:30:10;43.00;37.72;55.16;;
61286;Laerm;56412;53.148;8.204;2022-08-14T11:32:39;41.79;37.72;53.72;;
61286;Laerm;56412;53.148;8.204;2022-08-14T11:35:05;45.71;38.48;60.79;;
61286;Laerm;56412;53.148;8.204;2022-08-14T11:37:30;42.05;37.58;54.71;;
61286;Laerm;56412;53.148;8.204;2022-08-14T11:39:59;59.24;37.05;75.06;;
61286;Laerm;56412;53.148;8.204;2022-08-14T11:42:28;43.79;36.26;62.86;;
61286;Laerm;56412;53.148;8.204;2022-08-14T11:44:59;47.06;37.29;67.40;;
61286;Laerm;56412;53.148;8.204;2022-08-14T11:47:27;47.16;37.51;65.90;;
61286;Laerm;56412;53.148;8.204;2022-08-14T11:49:57;43.32;36.54;58.56;;
61286;Laerm;56412;53.148;8.204;2022-08-14T11:52:33;62.76;39.55;76.87;;
61286;Laerm;56412;53.148;8.204;2022-08-14T11:54:59;63.42;37.72;75.70;;
61286;Laerm;56412;53.148;8.204;2022-08-14T11:57:25;44.90;36.80;58.53;;
61286;Laerm;56412;53.148;8.204;2022-08-14T12:00:06;50.03;40.18;64.76;;
61286;Laerm;56412;53.148;8.204;2022-08-14T12:02:33;52.55;39.27;65.04;;
61286;Laerm;56412;53.148;8.204;2022-08-14T12:04:58;49.01;39.55;64.60;;
61286;Laerm;56412;53.148;8.204;2022-08-14T12:07:24;46.74;38.65;63.56;;
61286;Laerm;56412;53.148;8.204;2022-08-14T12:09:55;48.09;38.97;63.49;;
61286;Laerm;56412;53.148;8.204;2022-08-14T12:12:23;51.27;38.12;65.68;;
61286;Laerm;56412;53.148;8.204;2022-08-14T12:14:57;49.96;37.05;66.66;;
61286;Laerm;56412;53.148;8.204;2022-08-14T12:17:31;57.26;40.18;68.67;;
61286;Laerm;56412;53.148;8.204;2022-08-14T12:20:08;43.67;37.05;57.91;;
61286;Laerm;56412;53.148;8.204;2022-08-14T12:22:41;58.93;40.06;73.52;;
61286;Laerm;56412;53.148;8.204;2022-08-14T12:25:12;48.13;38.65;63.74;;
61286;Laerm;56412;53.148;8.204;2022-08-14T12:27:46;47.66;38.12;66.31;;
61286;Laerm;56412;53.148;8.204;2022-08-14T12:30:30;51.36;38.65;66.43;;
61286;Laerm;56412;53.148;8.204;2022-08-14T12:33:00;52.26;38.65;66.21;;
61286;Laerm;56412;53.148;8.204;2022-08-14T12:35:40;50.13;39.41;63.60;;
61286;Laerm;56412;53.148;8.204;2022-08-14T12:38:07;48.51;37.37;65.94;;
61286;Laerm;56412;53.148;8.204;2022-08-14T12:40:44;50.03;37.51;69.47;;
61286;Laerm;56412;53.148;8.204;2022-08-14T12:43:10;60.14;39.41;74.66;;
61286;Laerm;56412;53.148;8.204;2022-08-14T12:45:37;42.33;37.29;66.11;;
61286;Laerm;56412;53.148;8.204;2022-08-14T12:48:04;41.59;37.29;52.75;;
61286;Laerm;56412;53.148;8.204;2022-08-14T12:50:37;58.61;37.51;74.36;;
61286;Laerm;56412;53.148;8.204;2022-08-14T12:53:03;54.28;40.52;67.94;;
61286;Laerm;56412;53.148;8.204;2022-08-14T12:55:28;52.41;39.68;69.55;;
61286;Laerm;56412;53.148;8.204;2022-08-14T12:58:01;47.93;37.92;62.93;;
61286;Laerm;56412;53.148;8.204;2022-08-14T13:00:30;54.26;38.48;67.21;;
61286;Laerm;56412;53.148;8.204;2022-08-14T13:02:56;47.55;38.48;66.30;;
61286;Laerm;56412;53.148;8.204;2022-08-14T13:05:32;49.40;36.80;65.03;;
61286;Laerm;56412;53.148;8.204;2022-08-14T13:08:04;45.05;38.30;65.54;;
61286;Laerm;56412;53.148;8.204;2022-08-14T13:10:32;51.06;39.41;65.93;;
61286;Laerm;56412;53.148;8.204;2022-08-14T13:12:59;54.64;41.03;71.31;;
61286;Laerm;56412;53.148;8.204;2022-08-14T13:15:25;53.70;38.65;66.49;;
61286;Laerm;56412;53.148;8.204;2022-08-14T13:17:52;43.92;38.30;56.03;;
61286;Laerm;56412;53.148;8.204;2022-08-14T13:20:21;54.92;38.97;67.73;;
61286;Laerm;56412;53.148;8.204;2022-08-14T13:22:48;49.69;38.48;68.90;;
61286;Laerm;56412;53.148;8.204;2022-08-14T13:25:23;59.24;40.41;71.55;;
61286;Laerm;56412;53.148;8.204;2022-08-14T13:27:57;55.56;40.59;68.12;;
61286;Laerm;56412;53.148;8.204;2022-08-14T13:30:25;49.29;37.05;64.49;;
61286;Laerm;56412;53.148;8.204;2022-08-14T13:32:55;52.54;39.27;69.25;;
61286;Laerm;56412;53.148;8.204;2022-08-14T13:35:22;46.61;39.41;61.52;;
61286;Laerm;56412;53.148;8.204;2022-08-14T13:37:48;45.99;37.72;61.70;;
61286;Laerm;56412;53.148;8.204;2022-08-14T13:40:16;48.01;38.65;65.89;;
61286;Laerm;56412;53.148;8.204;2022-08-14T13:42:44;56.91;39.41;70.64;;
61286;Laerm;56412;53.148;8.204;2022-08-14T13:45:13;47.31;38.12;68.71;;
61286;Laerm;56412;53.148;8.204;2022-08-14T13:47:39;44.74;38.48;59.48;;
61286;Laerm;56412;53.148;8.204;2022-08-14T13:50:10;45.80;35.64;65.11;;
61286;Laerm;56412;53.148;8.204;2022-08-14T13:52:42;40.51;35.64;54.94;;
61286;Laerm;56412;53.148;8.204;2022-08-14T13:55:08;53.01;37.05;68.44;;
61286;Laerm;56412;53.148;8.204;2022-08-14T13:57:41;52.66;38.12;68.88;;
61286;Laerm;56412;53.148;8.204;2022-08-14T14:00:10;54.31;40.41;67.31;;
61286;Laerm;56412;53.148;8.204;2022-08-14T14:02:41;49.62;38.12;67.42;;
61286;Laerm;56412;53.148;8.204;2022-08-14T14:05:08;43.22;37.29;56.68;;